Terminal Aerodrome Forecast
Issued by NWS

Home | Current Version | Previous Version | Text Only | Print | Product List | Glossary Off
Versions: 1 2 3 4 5 6 7 8 9 10 11 12

875
FTUS45 KGGW 201720
TAFSDY
TAF
KSDY 201720Z 2018/2118 22017G25KT P6SM FEW210
     FM210000 22010KT P6SM SCT130
     FM211400 26006KT P6SM BKN090=

USA.gov is the U.S. government's official web portal to all federal, state and local government web resources and services.